Time;durP1;ratioP1;P1;durP2;ratioP2;P2;SDS_P1;SDS_P2;PMS_P1;PMS_P2;Temp;Humidity;BMP_temperature;BMP_pressure;BME280_temperature;BME280_humidity;BME280_pressure;Samples;Min_cycle;Max_cycle;Signal;HPM_P1;HPM_P2
2022/03/01 00:02:21;;;;;;;17.90;9.07;;;2.20;99.90;;;;;;4943055;29;20047;-86
2022/03/01 00:04:46;;;;;;;20.50;9.10;;;2.20;99.90;;;;;;4943077;28;20135;-87
2022/03/01 00:07:12;;;;;;;17.60;8.23;;;2.80;99.90;;;;;;4960565;29;20388;-86
2022/03/01 00:09:37;;;;;;;16.10;8.37;;;2.10;99.90;;;;;;4956242;29;20062;-87
2022/03/01 00:12:04;;;;;;;17.70;9.30;;;2.00;99.90;;;;;;4959239;29;20070;-87
2022/03/01 00:14:29;;;;;;;18.13;8.40;;;2.10;99.90;;;;;;4959123;29;20086;-87
2022/03/01 00:16:55;;;;;;;18.63;8.77;;;2.00;99.90;;;;;;4959958;28;20051;-87
2022/03/01 00:19:21;;;;;;;18.80;8.93;;;2.10;99.90;;;;;;4959914;29;20047;-87
2022/03/01 00:21:47;;;;;;;18.33;8.90;;;2.00;99.90;;;;;;4959165;29;20046;-87
2022/03/01 00:24:13;;;;;;;17.00;8.60;;;2.00;99.90;;;;;;4958328;28;20043;-87
2022/03/01 00:26:39;;;;;;;20.30;9.50;;;2.00;99.90;;;;;;4959010;28;20058;-87
2022/03/01 00:29:04;;;;;;;18.87;9.20;;;1.90;99.90;;;;;;4959499;29;20083;-87
2022/03/01 00:31:30;;;;;;;19.87;9.23;;;1.90;99.90;;;;;;4959154;28;20055;-87
2022/03/01 00:33:56;;;;;;;20.60;9.30;;;1.90;99.90;;;;;;4959039;29;20403;-86
2022/03/01 00:36:21;;;;;;;18.70;9.37;;;1.90;99.90;;;;;;4958979;29;20381;-87
2022/03/01 00:38:47;;;;;;;21.23;9.80;;;1.90;99.90;;;;;;4956039;28;20051;-87
2022/03/01 00:41:12;;;;;;;18.13;9.07;;;1.80;99.90;;;;;;4956046;29;20051;-86
2022/03/01 00:43:38;;;;;;;18.67;9.20;;;1.80;99.90;;;;;;4955832;29;20043;-86
2022/03/01 00:46:04;;;;;;;19.20;10.20;;;1.70;99.90;;;;;;4955229;29;20444;-86
2022/03/01 00:48:29;;;;;;;21.60;9.60;;;1.70;99.90;;;;;;4955601;29;20129;-87
2022/03/01 00:50:55;;;;;;;20.73;9.10;;;1.70;99.90;;;;;;4956145;29;20094;-86
2022/03/01 00:53:21;;;;;;;18.87;9.40;;;1.70;99.90;;;;;;4955157;29;20094;-86
2022/03/01 00:55:46;;;;;;;21.53;10.03;;;1.70;99.90;;;;;;4956847;29;20043;-86
2022/03/01 00:58:12;;;;;;;19.33;10.00;;;1.70;99.90;;;;;;4956049;29;20043;-87
2022/03/01 01:00:38;;;;;;;19.43;9.27;;;1.70;99.90;;;;;;4954780;29;20054;-86
2022/03/01 01:03:04;;;;;;;19.43;9.77;;;1.70;99.90;;;;;;4955620;29;20047;-86
2022/03/01 01:05:30;;;;;;;20.43;9.93;;;1.70;99.90;;;;;;4955419;29;20058;-86
2022/03/01 01:07:55;;;;;;;18.83;9.37;;;1.60;99.90;;;;;;4954649;29;20047;-86
2022/03/01 01:10:22;;;;;;;20.63;9.53;;;1.60;99.90;;;;;;4955590;29;20407;-86
2022/03/01 01:12:47;;;;;;;18.97;10.30;;;1.50;99.90;;;;;;4954853;29;20094;-87
2022/03/01 01:15:16;;;;;;;20.90;10.47;;;1.50;99.90;;;;;;4955610;29;20469;-87
2022/03/01 01:17:41;;;;;;;19.83;9.93;;;1.50;99.90;;;;;;4955179;29;20487;-87
2022/03/01 01:20:08;;;;;;;21.57;9.90;;;1.40;99.90;;;;;;4954895;29;20046;-87
2022/03/01 01:22:40;;;;;;;20.63;9.63;;;1.50;99.90;;;;;;4955189;29;20443;-87
2022/03/01 01:25:06;;;;;;;19.33;10.00;;;1.40;99.90;;;;;;4955469;29;20051;-87
2022/03/01 01:27:33;;;;;;;21.97;10.60;;;1.40;99.90;;;;;;4954753;29;20087;-87
2022/03/01 01:29:59;;;;;;;21.90;10.83;;;1.30;99.90;;;;;;4955224;29;20055;-87
2022/03/01 01:32:25;;;;;;;21.50;10.67;;;1.30;99.90;;;;;;4956924;29;20402;-87
2022/03/01 01:34:52;;;;;;;20.50;10.43;;;1.30;99.90;;;;;;4954630;29;20039;-87
2022/03/01 01:37:18;;;;;;;20.57;9.93;;;1.20;99.90;;;;;;4954855;29;20110;-87
2022/03/01 01:39:44;;;;;;;21.27;10.30;;;1.20;99.90;;;;;;4955064;29;20039;-86
2022/03/01 01:42:10;;;;;;;21.53;10.80;;;1.10;99.90;;;;;;4954338;29;20106;-86
2022/03/01 01:44:35;;;;;;;23.33;10.73;;;1.10;99.90;;;;;;4955844;29;20058;-87
2022/03/01 01:47:01;;;;;;;21.77;10.27;;;1.10;99.90;;;;;;4954964;29;20051;-87
2022/03/01 01:49:27;;;;;;;20.73;10.27;;;1.10;99.90;;;;;;4953924;28;20139;-87
2022/03/01 01:51:54;;;;;;;22.33;10.63;;;1.00;99.90;;;;;;4954065;29;20055;-87
2022/03/01 01:54:20;;;;;;;21.47;10.63;;;1.00;99.90;;;;;;4954805;29;20407;-87
2022/03/01 01:56:45;;;;;;;22.30;10.47;;;1.00;99.90;;;;;;4953705;29;20054;-87
2022/03/01 01:59:11;;;;;;;22.33;10.93;;;1.20;99.90;;;;;;4954899;29;20089;-87
2022/03/01 02:01:36;;;;;;;21.60;11.20;;;0.90;99.90;;;;;;4954521;29;20468;-87
2022/03/01 02:04:03;;;;;;;22.40;10.50;;;0.90;99.90;;;;;;4954029;29;20047;-88
2022/03/01 02:06:28;;;;;;;20.20;10.30;;;0.80;99.90;;;;;;4954152;29;20047;-87
2022/03/01 02:08:54;;;;;;;23.37;10.87;;;0.80;99.90;;;;;;4953580;29;20146;-87
2022/03/01 02:11:19;;;;;;;21.87;11.27;;;0.80;99.90;;;;;;4954311;29;20051;-87
2022/03/01 02:13:45;;;;;;;21.70;10.77;;;0.80;99.90;;;;;;4955323;29;20075;-87
2022/03/01 02:16:11;;;;;;;22.87;11.50;;;0.80;99.90;;;;;;4954215;29;20062;-87
2022/03/01 02:18:37;;;;;;;23.77;11.50;;;0.80;99.90;;;;;;4953999;29;20051;-87
2022/03/01 02:21:02;;;;;;;23.07;11.03;;;0.70;99.90;;;;;;4954605;29;20435;-87
2022/03/01 02:23:28;;;;;;;23.73;11.77;;;0.80;99.90;;;;;;4953180;29;20416;-87
2022/03/01 02:25:54;;;;;;;23.63;10.97;;;0.70;99.90;;;;;;4954534;29;20412;-87
2022/03/01 02:28:19;;;;;;;21.77;10.90;;;0.70;99.90;;;;;;4954108;29;20046;-87
2022/03/01 02:30:45;;;;;;;22.87;11.30;;;0.60;99.90;;;;;;4953140;29;20053;-87
2022/03/01 02:33:10;;;;;;;23.27;11.10;;;0.60;99.90;;;;;;4953766;29;20440;-87
2022/03/01 02:35:36;;;;;;;21.33;11.77;;;0.60;99.90;;;;;;4953639;29;20075;-87
2022/03/01 02:38:03;;;;;;;24.30;11.77;;;0.60;99.90;;;;;;4954573;29;20043;-87
2022/03/01 02:40:29;;;;;;;22.37;11.23;;;1.00;99.90;;;;;;4953752;29;20044;-87
2022/03/01 02:42:55;;;;;;;23.00;11.17;;;0.50;99.90;;;;;;4954057;29;20041;-87
2022/03/01 02:45:21;;;;;;;22.77;11.03;;;0.60;99.90;;;;;;4953103;29;20748;-87
2022/03/01 02:47:47;;;;;;;24.90;11.63;;;0.50;99.90;;;;;;4953803;29;20082;-87
2022/03/01 02:50:13;;;;;;;23.77;11.67;;;0.50;99.90;;;;;;4954099;29;20471;-87
2022/03/01 02:52:39;;;;;;;21.97;10.87;;;0.50;99.90;;;;;;4952681;29;20054;-87
2022/03/01 02:55:06;;;;;;;23.87;11.87;;;0.40;99.90;;;;;;4953778;29;20050;-87
2022/03/01 02:57:31;;;;;;;26.50;12.87;;;0.40;99.90;;;;;;4954229;29;20562;-87
2022/03/01 02:59:57;;;;;;;27.37;13.00;;;0.40;99.90;;;;;;4953648;29;20142;-87
2022/03/01 03:02:23;;;;;;;24.80;12.40;;;0.30;99.90;;;;;;4953284;28;20139;-87
2022/03/01 03:04:49;;;;;;;27.50;13.43;;;1.50;99.90;;;;;;4953935;29;20050;-87
2022/03/01 03:07:15;;;;;;;27.37;13.27;;;0.60;99.90;;;;;;4951741;29;20455;-87
2022/03/01 03:09:41;;;;;;;26.00;13.20;;;0.50;99.90;;;;;;4921926;29;20102;-87
2022/03/01 03:12:08;;;;;;;26.77;13.13;;;0.30;99.90;;;;;;4918181;29;20087;-87
2022/03/01 03:14:34;;;;;;;25.43;12.63;;;0.30;99.90;;;;;;4918392;29;20051;-87
2022/03/01 03:17:00;;;;;;;27.27;12.77;;;0.20;99.90;;;;;;4918488;29;20071;-87
2022/03/01 03:19:26;;;;;;;28.60;13.47;;;0.20;99.90;;;;;;4934695;29;20135;-87
2022/03/01 03:21:52;;;;;;;29.57;13.23;;;0.20;99.90;;;;;;4918583;29;20174;-87
2022/03/01 03:24:18;;;;;;;33.00;13.77;;;0.20;99.90;;;;;;4934939;29;20063;-86
2022/03/01 03:26:44;;;;;;;29.67;14.13;;;0.20;99.90;;;;;;4917465;29;20515;-87
2022/03/01 03:29:10;;;;;;;25.97;13.10;;;0.20;99.90;;;;;;4918428;29;20076;-87
2022/03/01 03:31:37;;;;;;;28.27;14.77;;;0.10;99.90;;;;;;4918527;29;20130;-87
2022/03/01 03:34:08;;;;;;;28.13;13.60;;;0.10;99.90;;;;;;4918100;29;20488;-87
2022/03/01 03:36:34;;;;;;;30.07;14.27;;;0.00;99.90;;;;;;4918649;29;20056;-87
2022/03/01 03:39:02;;;;;;;27.57;14.50;;;0.60;99.90;;;;;;4918703;29;20099;-87
2022/03/01 03:41:27;;;;;;;29.43;14.50;;;-0.10;99.90;;;;;;4917219;29;20066;-87
2022/03/01 03:43:53;;;;;;;29.00;14.47;;;0.00;99.90;;;;;;4918941;29;20138;-87
2022/03/01 03:46:20;;;;;;;27.93;13.97;;;-0.10;99.90;;;;;;4918033;29;20043;-87
2022/03/01 03:48:46;;;;;;;28.37;14.33;;;-0.40;99.90;;;;;;4917313;29;20535;-87
2022/03/01 03:51:12;;;;;;;27.97;13.70;;;-0.40;99.90;;;;;;4918286;29;20133;-87
2022/03/01 03:53:38;;;;;;;29.53;14.70;;;-0.50;99.90;;;;;;4917888;29;20075;-87
2022/03/01 03:56:04;;;;;;;28.30;13.77;;;-0.50;99.90;;;;;;4917423;29;20130;-87
2022/03/01 03:58:30;;;;;;;31.87;14.70;;;-0.60;99.90;;;;;;4917904;29;20052;-87
2022/03/01 04:00:55;;;;;;;30.13;14.30;;;-0.60;99.90;;;;;;4918100;29;20050;-87
2022/03/01 04:03:21;;;;;;;31.30;15.43;;;-0.70;99.90;;;;;;4916907;29;20385;-87
2022/03/01 04:05:47;;;;;;;29.80;13.73;;;0.30;99.90;;;;;;4918092;29;20131;-87
2022/03/01 04:08:13;;;;;;;27.17;13.77;;;-0.70;99.90;;;;;;4917544;29;20404;-87
2022/03/01 04:10:39;;;;;;;27.30;13.33;;;-0.70;99.90;;;;;;4917320;29;20048;-87
2022/03/01 04:13:05;;;;;;;30.00;14.07;;;-0.80;99.90;;;;;;4917577;29;20039;-87
2022/03/01 04:15:30;;;;;;;28.07;13.97;;;-0.80;99.90;;;;;;4920709;29;20083;-87
2022/03/01 04:17:56;;;;;;;26.73;13.70;;;0.00;99.90;;;;;;4938829;29;20043;-87
2022/03/01 04:20:22;;;;;;;27.27;13.90;;;0.10;99.90;;;;;;4938342;29;20122;-86
2022/03/01 04:22:48;;;;;;;31.20;13.97;;;0.20;99.90;;;;;;4920565;29;21073;-86
2022/03/01 04:25:13;;;;;;;28.00;14.13;;;-0.70;99.90;;;;;;4921168;29;20039;-86
2022/03/01 04:27:40;;;;;;;29.03;14.30;;;-0.70;99.90;;;;;;4921649;29;20511;-87
2022/03/01 04:30:11;;;;;;;25.43;12.70;;;-0.60;99.90;;;;;;4920533;29;20043;-87
2022/03/01 04:32:37;;;;;;;27.10;13.43;;;-0.60;99.90;;;;;;4921282;29;20534;-86
2022/03/01 04:35:04;;;;;;;29.93;13.60;;;0.20;99.90;;;;;;4921743;29;20075;-87
2022/03/01 04:37:30;;;;;;;26.87;12.83;;;-0.50;99.90;;;;;;4937112;29;20122;-86
2022/03/01 04:39:56;;;;;;;26.53;12.87;;;-0.40;99.90;;;;;;4921100;29;20052;-87
2022/03/01 04:42:21;;;;;;;25.67;13.00;;;-0.50;99.90;;;;;;4920901;29;20101;-86
2022/03/01 04:44:47;;;;;;;27.87;13.53;;;-0.30;99.90;;;;;;4920307;29;20056;-86
2022/03/01 04:47:14;;;;;;;25.47;13.10;;;-0.40;99.90;;;;;;4939317;29;20047;-86
2022/03/01 04:49:40;;;;;;;26.30;13.60;;;-0.40;99.90;;;;;;4942859;29;20043;-87
2022/03/01 04:52:06;;;;;;;23.07;12.27;;;-0.40;99.90;;;;;;4937118;29;20400;-86
2022/03/01 04:54:32;;;;;;;25.77;12.57;;;-0.30;99.90;;;;;;4920631;29;20051;-87
2022/03/01 04:56:57;;;;;;;27.03;12.23;;;-0.40;99.90;;;;;;4938165;29;20408;-86
2022/03/01 04:59:23;;;;;;;25.20;11.63;;;0.60;99.90;;;;;;4920129;29;20119;-86
2022/03/01 05:01:49;;;;;;;23.13;11.93;;;-0.40;99.90;;;;;;4928749;29;20464;-86
2022/03/01 05:04:15;;;;;;;28.47;12.73;;;0.90;99.90;;;;;;4938984;29;20043;-87
2022/03/01 05:06:40;;;;;;;24.33;12.10;;;-0.30;99.90;;;;;;4955280;29;20102;-87
2022/03/01 05:09:06;;;;;;;27.10;13.30;;;-0.20;99.90;;;;;;4938706;29;20109;-86
2022/03/01 05:11:32;;;;;;;25.07;11.73;;;-0.20;99.90;;;;;;4956869;29;20039;-86
2022/03/01 05:13:57;;;;;;;26.40;12.00;;;0.90;99.90;;;;;;4956108;29;20491;-87
2022/03/01 05:16:23;;;;;;;24.43;12.40;;;0.80;99.90;;;;;;4939483;29;20051;-86
2022/03/01 05:18:48;;;;;;;25.60;12.07;;;-0.20;99.90;;;;;;4955738;29;20058;-86
2022/03/01 05:21:14;;;;;;;25.97;12.90;;;-0.10;99.90;;;;;;4939043;29;20462;-86
2022/03/01 05:23:39;;;;;;;27.33;12.87;;;-0.10;99.90;;;;;;4939244;29;20466;-87
2022/03/01 05:26:05;;;;;;;26.40;13.00;;;-0.10;99.90;;;;;;4937919;29;20043;-87
2022/03/01 05:28:31;;;;;;;27.17;12.77;;;0.00;99.90;;;;;;4939561;29;20203;-87
2022/03/01 05:30:56;;;;;;;28.27;12.83;;;0.00;99.90;;;;;;4939501;29;20520;-86
2022/03/01 05:33:22;;;;;;;26.33;12.83;;;0.00;99.90;;;;;;4955353;29;20054;-87
2022/03/01 05:35:49;;;;;;;26.00;12.43;;;1.20;99.90;;;;;;4939309;29;20461;-86
2022/03/01 05:38:14;;;;;;;24.87;12.47;;;1.20;99.90;;;;;;4956078;29;20055;-87
2022/03/01 05:40:40;;;;;;;25.87;12.50;;;0.10;99.90;;;;;;4938769;29;20039;-87
2022/03/01 05:43:07;;;;;;;25.90;13.07;;;1.50;99.90;;;;;;4939024;29;20087;-87
2022/03/01 05:45:34;;;;;;;24.70;12.93;;;0.10;99.90;;;;;;4956094;29;20054;-86
2022/03/01 05:48:01;;;;;;;25.13;12.47;;;0.20;99.90;;;;;;4938495;29;20054;-86
2022/03/01 05:50:27;;;;;;;26.40;13.30;;;0.20;99.90;;;;;;4938403;29;20047;-87
2022/03/01 05:52:53;;;;;;;26.60;13.17;;;0.20;99.90;;;;;;4938589;29;20051;-86
2022/03/01 05:55:19;;;;;;;27.50;13.10;;;0.80;99.90;;;;;;4955070;29;20101;-87
2022/03/01 05:57:45;;;;;;;25.97;12.87;;;0.30;99.90;;;;;;4938837;29;20055;-86
2022/03/01 06:00:13;;;;;;;27.67;13.20;;;0.20;99.90;;;;;;4938558;29;20373;-86
2022/03/01 06:02:40;;;;;;;27.73;13.00;;;0.30;99.90;;;;;;4938115;29;20062;-86
2022/03/01 06:05:06;;;;;;;27.40;12.87;;;0.30;99.90;;;;;;4938326;29;20047;-86
2022/03/01 06:07:32;;;;;;;23.97;11.70;;;0.30;99.90;;;;;;4955691;28;20043;-86
2022/03/01 06:09:58;;;;;;;25.47;12.50;;;0.30;99.90;;;;;;4957014;28;20062;-87
2022/03/01 06:12:23;;;;;;;24.70;12.30;;;0.30;99.90;;;;;;4974817;28;20055;-87
2022/03/01 06:14:49;;;;;;;24.93;13.07;;;0.80;99.90;;;;;;4974973;28;20402;-87
2022/03/01 06:17:14;;;;;;;25.23;13.17;;;0.50;99.90;;;;;;4973757;28;20039;-86
2022/03/01 06:19:40;;;;;;;26.20;14.07;;;1.00;99.90;;;;;;4957594;28;20039;-86
2022/03/01 06:22:06;;;;;;;26.40;13.20;;;0.40;99.90;;;;;;4956692;28;20059;-86
2022/03/01 06:24:34;;;;;;;26.57;13.03;;;0.30;99.90;;;;;;4974706;28;20043;-87
2022/03/01 06:26:59;;;;;;;25.33;12.40;;;0.30;99.90;;;;;;4957290;28;20051;-86
2022/03/01 06:29:25;;;;;;;28.43;13.00;;;0.30;99.90;;;;;;4956418;28;20102;-87
2022/03/01 06:31:50;;;;;;;26.23;12.37;;;0.30;99.90;;;;;;4957058;28;20043;-86
2022/03/01 06:34:16;;;;;;;27.17;13.40;;;0.30;99.90;;;;;;4974159;28;20407;-86
2022/03/01 06:36:42;;;;;;;26.50;12.90;;;0.30;99.90;;;;;;4973417;28;20096;-87
2022/03/01 06:39:07;;;;;;;24.33;11.93;;;0.30;99.90;;;;;;4956933;28;20093;-86
2022/03/01 06:41:33;;;;;;;26.47;13.40;;;0.30;99.90;;;;;;4957307;28;20082;-86
2022/03/01 06:43:58;;;;;;;23.83;12.07;;;0.30;99.90;;;;;;4956752;28;20042;-87
2022/03/01 06:46:25;;;;;;;26.57;12.87;;;0.40;99.90;;;;;;4956702;28;20089;-87
2022/03/01 06:48:50;;;;;;;24.13;12.60;;;0.40;99.90;;;;;;4956819;28;20419;-87
2022/03/01 06:51:16;;;;;;;24.00;12.27;;;0.40;99.90;;;;;;4955991;28;20054;-87
2022/03/01 06:53:42;;;;;;;26.23;13.30;;;0.50;99.90;;;;;;4957159;28;20050;-87
2022/03/01 06:56:07;;;;;;;26.40;12.87;;;0.40;99.90;;;;;;4956910;28;20050;-86
2022/03/01 06:58:33;;;;;;;28.10;12.73;;;0.50;99.90;;;;;;4956377;28;20038;-86
2022/03/01 07:01:22;;;;;;;24.17;12.67;;;0.50;99.90;;;;;;4957052;28;20137;-92
2022/03/01 07:03:51;;;;;;;25.53;12.77;;;0.50;99.90;;;;;;4957231;28;20054;-89
2022/03/01 07:06:22;;;;;;;24.37;13.07;;;0.90;99.90;;;;;;4955942;28;20078;-89
2022/03/01 07:12:23;;;;;;;29.10;13.17;;;0.90;99.90;;;;;;4942607;23;20044;-92
2022/03/01 07:14:53;;;;;;;27.83;13.03;;;1.30;99.90;;;;;;4934326;29;20114;-90
2022/03/01 07:17:19;;;;;;;25.33;13.23;;;2.40;99.90;;;;;;4920849;29;20118;-90
2022/03/01 07:19:45;;;;;;;26.53;13.20;;;1.00;99.90;;;;;;4918542;29;20079;-89
2022/03/01 07:22:18;;;;;;;32.53;14.07;;;0.90;99.90;;;;;;4918139;29;20475;-89
2022/03/01 07:24:47;;;;;;;32.88;14.88;;;0.90;99.90;;;;;;4918290;29;20048;-88
2022/03/01 07:27:13;;;;;;;46.60;17.47;;;1.10;99.90;;;;;;4917919;29;20048;-88
2022/03/01 07:29:38;;;;;;;28.53;14.23;;;1.60;99.90;;;;;;4919552;29;20051;-89
2022/03/01 07:32:09;;;;;;;25.80;13.40;;;2.30;99.90;;;;;;4935680;29;20047;-93
2022/03/01 07:34:35;;;;;;;28.23;13.13;;;1.80;99.90;;;;;;4918083;29;20039;-90
2022/03/01 07:37:02;;;;;;;27.37;13.10;;;1.50;99.90;;;;;;4918448;29;20369;-89
2022/03/01 07:39:27;;;;;;;27.60;13.40;;;1.80;99.90;;;;;;4917787;29;20039;-90
2022/03/01 07:41:53;;;;;;;28.87;13.00;;;1.60;99.90;;;;;;4922999;29;20492;-90
2022/03/01 07:44:22;;;;;;;25.27;13.17;;;1.90;99.90;;;;;;4920797;29;20048;-90
2022/03/01 07:46:48;;;;;;;27.50;12.93;;;2.30;99.90;;;;;;4917421;29;20094;-89
2022/03/01 07:49:13;;;;;;;25.17;12.77;;;2.90;99.90;;;;;;4920775;29;20071;-91
2022/03/01 07:51:39;;;;;;;24.97;12.97;;;3.20;99.90;;;;;;4922361;29;20060;-90
2022/03/01 07:54:05;;;;;;;22.83;12.80;;;2.10;99.90;;;;;;4923512;29;20097;-89
2022/03/01 07:56:30;;;;;;;24.10;12.70;;;2.10;99.90;;;;;;4931034;29;20067;-89
2022/03/01 07:58:59;;;;;;;23.70;12.43;;;3.10;99.90;;;;;;4921792;29;20074;-92
2022/03/01 08:01:26;;;;;;;24.30;12.77;;;4.10;99.90;;;;;;4921272;29;20058;-91
2022/03/01 08:04:10;;;;;;;24.47;12.53;;;2.50;99.90;;;;;;4921579;29;20412;-90
2022/03/01 08:06:38;;;;;;;26.20;12.57;;;1.90;99.90;;;;;;4935879;23;20070;-94
2022/03/01 08:09:12;;;;;;;24.43;13.63;;;2.50;99.90;;;;;;4960747;23;20053;-93
2022/03/01 08:11:44;;;;;;;26.83;12.87;;;2.70;99.90;;;;;;4930808;29;20043;-95
2022/03/01 08:14:10;;;;;;;23.77;13.63;;;3.10;99.90;;;;;;4930535;29;20491;-87
2022/03/01 08:16:37;;;;;;;25.30;13.27;;;2.90;99.90;;;;;;4923070;29;20048;-91
2022/03/01 08:19:03;;;;;;;25.57;12.93;;;3.00;99.90;;;;;;4922125;29;20100;-92
2022/03/01 08:21:28;;;;;;;26.40;12.90;;;2.40;99.90;;;;;;4927092;29;20079;-92
2022/03/01 08:23:54;;;;;;;25.03;13.37;;;3.10;99.90;;;;;;4932841;29;20039;-91
2022/03/01 08:26:20;;;;;;;27.10;12.70;;;3.00;99.90;;;;;;4940611;29;20137;-93
2022/03/01 08:28:52;;;;;;;24.53;13.40;;;3.20;99.90;;;;;;4939509;29;20475;-93
2022/03/01 08:31:18;;;;;;;23.67;12.67;;;3.60;99.90;;;;;;4940383;29;20435;-90
2022/03/01 08:33:59;;;;;;;24.03;12.73;;;4.00;99.90;;;;;;4957541;29;20047;-91
2022/03/01 08:36:26;;;;;;;22.63;12.03;;;2.70;99.90;;;;;;4937175;29;20134;-92
2022/03/01 08:38:52;;;;;;;23.27;12.10;;;5.20;99.90;;;;;;4940486;29;20051;-91
2022/03/01 08:41:18;;;;;;;22.87;12.37;;;3.20;99.90;;;;;;4939947;29;20047;-92
2022/03/01 08:43:44;;;;;;;23.23;12.33;;;2.80;99.90;;;;;;4921317;29;20058;-92
2022/03/01 08:46:11;;;;;;;22.27;12.03;;;3.30;99.90;;;;;;4921300;29;20051;-93
2022/03/01 08:48:37;;;;;;;25.07;12.67;;;;;;;;;;4921779;29;20051;-95
2022/03/01 08:51:03;;;;;;;24.03;12.90;;;3.60;99.90;;;;;;4922073;29;20074;-96
2022/03/01 08:53:28;;;;;;;23.43;12.37;;;3.30;99.90;;;;;;4921815;29;20555;-93
2022/03/01 08:55:59;;;;;;;24.83;13.27;;;4.10;99.90;;;;;;4921652;29;20142;-93
2022/03/01 08:58:25;;;;;;;23.37;12.17;;;4.90;99.90;;;;;;4921320;29;20044;-92
2022/03/01 09:00:57;;;;;;;23.27;12.50;;;3.90;99.90;;;;;;4921262;29;20466;-94
2022/03/01 09:03:30;;;;;;;23.47;12.97;;;4.80;99.90;;;;;;4948503;23;20058;-94
2022/03/01 09:08:24;;;;;;;23.27;12.33;;;3.80;99.90;;;;;;4944061;23;20060;-94
2022/03/01 09:10:49;;;;;;;24.13;12.53;;;2.90;99.90;;;;;;4938479;29;20062;-95
2022/03/01 09:13:15;;;;;;;22.97;12.73;;;3.90;99.90;;;;;;4937581;29;20051;-95
2022/03/01 09:15:41;;;;;;;22.97;12.83;;;5.20;99.90;;;;;;4950041;29;20058;-93
2022/03/01 09:18:06;;;;;;;25.93;13.23;;;4.50;99.90;;;;;;4950050;28;20062;-95
2022/03/01 09:20:33;;;;;;;21.67;12.83;;;4.70;99.90;;;;;;4938192;29;20053;-95
2022/03/01 09:23:00;;;;;;;23.03;12.13;;;3.90;99.90;;;;;;4937171;29;20052;-93
2022/03/01 09:25:26;;;;;;;24.57;13.70;;;3.90;99.90;;;;;;4936903;29;20040;-94
2022/03/01 09:27:52;;;;;;;22.17;12.50;;;4.50;99.90;;;;;;4937310;29;20047;-95
2022/03/01 09:30:20;;;;;;;21.80;11.93;;;4.50;99.90;;;;;;4939075;29;20040;-93
2022/03/01 09:32:46;;;;;;;21.70;12.10;;;4.10;99.90;;;;;;4936899;29;20047;-93
2022/03/01 09:35:12;;;;;;;20.20;11.40;;;5.90;99.90;;;;;;4936750;29;20052;-93
2022/03/01 09:37:38;;;;;;;22.37;12.43;;;4.70;99.90;;;;;;4936375;29;20075;-93
2022/03/01 09:40:06;;;;;;;21.23;11.80;;;5.50;99.90;;;;;;4937512;29;20039;-90
2022/03/01 09:42:32;;;;;;;24.03;12.43;;;5.10;99.90;;;;;;4944798;29;20039;-90
2022/03/01 09:44:59;;;;;;;22.97;13.03;;;4.10;99.90;;;;;;4935108;29;20043;-90
2022/03/01 09:47:25;;;;;;;23.70;12.10;;;6.20;99.90;;;;;;4943501;29;20039;-91
2022/03/01 09:50:04;;;;;;;21.87;12.03;;;5.30;99.90;;;;;;4955300;29;20053;-90
2022/03/01 09:52:30;;;;;;;20.67;11.67;;;5.60;99.90;;;;;;4957777;29;20086;-90
2022/03/01 09:54:56;;;;;;;20.37;11.43;;;6.50;99.90;;;;;;4955732;29;20090;-90
2022/03/01 09:57:22;;;;;;;20.87;12.20;;;6.40;99.90;;;;;;4957873;29;20158;-90
2022/03/01 10:00:02;;;;;;;22.70;12.13;;;7.40;99.90;;;;;;4954651;29;20407;-89
2022/03/01 10:02:45;;;;;;;19.87;11.77;;;6.80;99.90;;;;;;4950358;29;20424;-89
2022/03/01 10:05:39;;;;;;;20.40;11.87;;;5.40;99.90;;;;;;4925276;23;20051;-91
2022/03/01 10:08:27;;;;;;;20.70;12.00;;;6.40;99.90;;;;;;4876948;29;20060;-90
2022/03/01 10:10:54;;;;;;;22.63;12.03;;;5.10;99.90;;;;;;4861642;29;20181;-89
2022/03/01 10:13:55;;;;;;;19.43;11.80;;;6.60;99.90;;;;;;4861772;29;20144;-89
2022/03/01 10:16:22;;;;;;;19.53;12.07;;;6.80;99.90;;;;;;4869272;29;20109;-89
2022/03/01 10:19:23;;;;;;;20.30;12.03;;;6.60;99.90;;;;;;4935152;29;20051;-91
2022/03/01 10:21:59;;;;;;;22.43;11.93;;;6.70;99.90;;;;;;4936515;29;20040;-90
2022/03/01 10:24:46;;;;;;;21.07;12.40;;;7.50;99.90;;;;;;4936026;29;20083;-88
2022/03/01 10:27:11;;;;;;;20.57;11.80;;;6.40;99.90;;;;;;4934864;29;20518;-89
2022/03/01 10:29:45;;;;;;;22.10;12.77;;;6.90;99.90;;;;;;4923369;29;20044;-88
2022/03/01 10:32:11;;;;;;;;;;;7.50;99.90;;;;;;4910449;29;20119;-90
2022/03/01 10:34:46;;;;;;;19.00;11.60;;;7.00;99.90;;;;;;4916479;29;19923;-92
2022/03/01 10:37:51;;;;;;;21.53;11.93;;;6.60;99.90;;;;;;4899343;29;20123;-93
2022/03/01 10:40:44;;;;;;;22.00;12.70;;;8.20;99.90;;;;;;4887194;29;20490;-93
2022/03/01 10:43:17;;;;;;;21.37;12.17;;;7.00;99.90;;;;;;4899499;29;20048;-92
2022/03/01 10:46:06;;;;;;;27.33;12.93;;;7.10;99.90;;;;;;4890089;29;20044;-91
2022/03/01 10:48:44;;;;;;;20.43;11.53;;;7.30;99.90;;;;;;4915077;29;20088;-91
2022/03/01 10:51:22;;;;;;;20.20;11.97;;;6.50;99.90;;;;;;4898855;29;20131;-90
2022/03/01 10:53:57;;;;;;;18.60;11.67;;;6.80;99.90;;;;;;4915023;29;20048;-93
2022/03/01 10:56:35;;;;;;;19.50;11.50;;;8.60;99.90;;;;;;4897142;29;20083;-90
2022/03/01 10:59:05;;;;;;;18.30;11.30;;;7.80;99.90;;;;;;4916607;29;20535;-90
2022/03/01 11:01:36;;;;;;;20.00;11.67;;;9.00;99.90;;;;;;4900127;29;20048;-91
2022/03/01 11:04:03;;;;;;;19.40;12.00;;;7.80;99.90;;;;;;4898383;29;20092;-90
2022/03/01 11:06:29;;;;;;;20.00;11.60;;;8.50;99.90;;;;;;4909286;23;20098;-90
2022/03/01 11:08:57;;;;;;;18.50;11.47;;;9.90;99.90;;;;;;4899474;29;20051;-90
2022/03/01 11:11:25;;;;;;;20.10;11.87;;;8.80;99.90;;;;;;4856891;29;20164;-92
2022/03/01 11:13:51;;;;;;;18.00;11.30;;;10.20;99.90;;;;;;4901173;23;20053;-90
2022/03/01 11:16:41;;;;;;;18.10;11.40;;;9.10;99.90;;;;;;4954955;29;20051;-89
2022/03/01 11:19:45;;;;;;;20.60;13.00;;;9.30;99.90;;;;;;4936580;29;20047;-90
2022/03/01 11:23:17;;;;;;;18.07;11.70;;;9.40;99.90;;;;;;4914422;29;20127;-92
2022/03/01 11:25:47;;;;;;;20.17;12.47;;;10.80;99.90;;;;;;4925050;28;20392;-90
2022/03/01 11:28:14;;;;;;;19.47;12.37;;;9.80;99.90;;;;;;4939614;28;20042;-93
2022/03/01 11:34:13;;;;;;;20.63;12.70;;;10.40;99.90;;;;;;4938202;28;20483;-93
2022/03/01 11:36:52;;;;;;;20.90;12.70;;;9.50;99.90;;;;;;4934204;28;20515;-90
2022/03/01 11:39:27;;;;;;;19.70;11.80;;;9.60;99.90;;;;;;4942052;28;20047;-90
2022/03/01 11:42:07;;;;;;;22.93;12.67;;;10.20;99.90;;;;;;4942661;28;20487;-90
2022/03/01 11:44:39;;;;;;;19.73;12.25;;;10.20;99.90;;;;;;4945126;28;20089;-90
2022/03/01 11:47:31;;;;;;;19.05;11.30;;;10.30;99.90;;;;;;4941329;29;20055;-90
2022/03/01 11:49:57;;;;;;;21.75;13.35;;;9.40;99.90;;;;;;4944196;28;20129;-90
2022/03/01 11:52:54;;;;;;;21.75;12.48;;;10.00;99.90;;;;;;4945434;28;20038;-90
2022/03/01 11:55:20;;;;;;;19.88;12.35;;;10.00;99.90;;;;;;4936171;29;20082;-91
2022/03/01 11:57:45;;;;;;;20.05;12.38;;;9.40;99.90;;;;;;4936729;29;20083;-91
2022/03/01 12:00:15;;;;;;;18.65;12.10;;;10.30;99.90;;;;;;4934412;29;20070;-91
2022/03/01 12:02:46;;;;;;;21.55;12.70;;;9.70;99.90;;;;;;4936466;29;20058;-92
2022/03/01 12:05:25;;;;;;;22.38;12.70;;;10.00;99.90;;;;;;4936511;29;20474;-94
2022/03/01 12:07:52;;;;;;;18.75;11.88;;;10.10;99.90;;;;;;4935574;29;20047;-91
2022/03/01 12:10:25;;;;;;;19.80;12.15;;;9.40;99.90;;;;;;4935648;29;20047;-91
2022/03/01 12:12:57;;;;;;;17.65;11.52;;;10.20;99.90;;;;;;4936516;28;20054;-91
2022/03/01 12:16:13;;;;;;;19.35;12.40;;;10.00;99.90;;;;;;4951925;29;20055;-90
2022/03/01 12:18:40;;;;;;;17.85;11.70;;;9.40;99.90;;;;;;4935562;29;20055;-91
2022/03/01 12:21:09;;;;;;;19.55;12.60;;;10.90;99.90;;;;;;4935232;29;20039;-91
2022/03/01 12:23:37;;;;;;;20.90;12.18;;;9.40;99.90;;;;;;4935415;29;20044;-90
2022/03/01 12:26:05;;;;;;;18.38;12.07;;;10.00;99.90;;;;;;4936321;29;20410;-91
2022/03/01 12:28:57;;;;;;;20.42;12.40;;;9.40;99.90;;;;;;4935265;29;20048;-91
2022/03/01 12:31:26;;;;;;;21.63;12.02;;;10.00;99.90;;;;;;4936913;29;20391;-90
2022/03/01 12:34:06;;;;;;;18.67;12.30;;;9.10;99.90;;;;;;4936268;28;20408;-90
2022/03/01 12:36:40;;;;;;;19.50;12.48;;;10.40;99.90;;;;;;4938472;29;20061;-91
2022/03/01 12:39:11;;;;;;;20.63;11.77;;;10.50;99.90;;;;;;4939126;29;20059;-91
2022/03/01 12:41:44;;;;;;;19.98;12.18;;;9.70;99.90;;;;;;4936888;29;20055;-91
2022/03/01 12:44:28;;;;;;;19.98;11.98;;;10.40;99.90;;;;;;4937859;29;20117;-90
2022/03/01 12:46:55;;;;;;;19.08;12.38;;;9.90;99.90;;;;;;4939104;29;20146;-90
2022/03/01 12:49:20;;;;;;;20.42;12.65;;;9.30;99.90;;;;;;4937636;29;20151;-90
2022/03/01 12:51:59;;;;;;;20.15;13.05;;;9.50;99.90;;;;;;4945859;29;20066;-91
2022/03/01 12:54:27;;;;;;;19.40;12.75;;;9.20;99.90;;;;;;4940320;29;20141;-90